Overview Statistics Trail Chart Weather Telemetry Raw packets
 

This is the latest recevied weather packets stored in our database for station/object DK6GC-10. If no packets are shown the sender has not sent any weather packets the latest 10 day(s).

<< 34 35 36 37 38 >>
Time Temp. Humidity Pressure Rain* Wind** Luminosity Snow
1787881520 20.56° C 89% 1012.5 hPa - - - -
1787880620 20.56° C 89% 1012.6 hPa - - - -
1787879719 20.56° C 86% 1012.6 hPa - - - -
1787878819 21.11° C 83% 1012.4 hPa - - - -
1787877919 21.67° C 80% 1012.1 hPa - - - -
1787877019 21.11° C 81% 1012.2 hPa - - - -
1787876118 21.11° C 81% 1012.5 hPa - - - -
1787875224 21.67° C 77% 1012.4 hPa - - - -
1787874324 22.22° C 76% 1012.6 hPa - - - -
1787873424 22.78° C 72% 1012.6 hPa - - - -
1787872523 22.22° C 72% 1013.2 hPa - - - -
1787871623 21.67° C 75% 1012.1 hPa - - - -
1787870723 21.11° C 78% 1010.9 hPa - - - -
1787869823 21.67° C 77% 1010.4 hPa - - - -
1787868923 21.11° C 79% 1010.3 hPa - - - -
1787868023 21.11° C 79% 1010.5 hPa - - - -
1787867122 21.11° C 78% 1010.6 hPa - - - -
1787866222 21.11° C 77% 1010.5 hPa - - - -
1787865322 21.67° C 77% 1010.3 hPa - - - -
1787864422 22.22° C 73% 1010.2 hPa - - - -
1787863522 22.22° C 71% 1010.3 hPa - - - -
1787862621 22.22° C 72% 1010.3 hPa - - - -
1787861720 22.78° C 70% 1010.3 hPa - - - -
1787860820 23.89° C 64% 1010.2 hPa - - - -
1787859926 24.44° C 59% 1010.1 hPa - - - -

* Rain since midnight (hover to see other rain measurements)
** Current wind speed in m/s (hover to see current wind gust speed)